Time,TemperatureF,DewpointF,PressureIn,WindDirection,WindDirectionDegrees,WindSpeedMPH,WindSpeedGustMPH,Humidity,HourlyPrecipIn,Conditions,Clouds,dailyrainin,SolarRadiationWatts/m^2,SoftwareType,DateUTC
2013-03-14 00:33:00,24.0,16.0,-100.00,North,11,5.0,14.0,71,0.00,,,0.00,0.000000,,2013-03-14 04:33:00,
2013-03-14 00:42:00,24.0,16.0,-100.00,North,11,5.0,14.0,71,0.00,,,0.00,0.000000,,2013-03-14 04:42:00,
2013-03-14 00:53:00,24.0,16.0,-100.00,North,11,5.0,14.0,71,0.00,,,0.00,0.000000,,2013-03-14 04:53:00,
2013-03-14 01:02:00,24.0,16.0,-100.00,North,11,5.0,14.0,71,0.00,,,0.00,0.000000,,2013-03-14 05:02:00,
2013-03-14 01:33:00,24.0,16.0,-100.00,North,10,6.0,16.0,71,0.00,,,0.00,0.000000,,2013-03-14 05:33:00,
2013-03-14 01:42:00,24.0,16.0,-100.00,North,10,6.0,16.0,71,0.00,,,0.00,0.000000,,2013-03-14 05:42:00,
2013-03-14 01:53:00,24.0,16.0,-100.00,North,10,6.0,16.0,71,0.00,,,0.00,0.000000,,2013-03-14 05:53:00,
2013-03-14 02:02:00,24.0,16.0,-100.00,North,10,6.0,16.0,71,0.00,,,0.00,0.000000,,2013-03-14 06:02:00,
2013-03-14 02:33:00,25.0,15.0,-100.00,North,359,8.0,20.0,66,0.00,,,0.00,0.000000,,2013-03-14 06:33:00,
2013-03-14 02:42:00,25.0,15.0,-100.00,North,359,8.0,20.0,66,0.00,,,0.00,0.000000,,2013-03-14 06:42:00,
2013-03-14 02:52:00,25.0,15.0,-100.00,North,359,8.0,20.0,66,0.00,,,0.00,0.000000,,2013-03-14 06:52:00,
2013-03-14 03:02:00,25.0,15.0,-100.00,North,359,8.0,20.0,66,0.00,,,0.00,0.000000,,2013-03-14 07:02:00,
2013-03-14 03:32:00,25.0,15.0,-100.00,North,352,9.0,20.0,64,0.00,,,0.00,0.000000,,2013-03-14 07:32:00,
2013-03-14 03:43:00,25.0,15.0,-100.00,North,352,9.0,20.0,64,0.00,,,0.00,0.000000,,2013-03-14 07:43:00,
2013-03-14 03:52:00,25.0,15.0,-100.00,North,352,9.0,20.0,64,0.00,,,0.00,0.000000,,2013-03-14 07:52:00,
2013-03-14 04:02:00,25.0,15.0,-100.00,North,352,9.0,20.0,64,0.00,,,0.00,0.000000,,2013-03-14 08:02:00,
2013-03-14 04:32:00,25.0,15.0,-100.00,North,351,8.0,17.0,64,0.00,,,0.00,0.000000,,2013-03-14 08:32:00,
2013-03-14 04:42:00,25.0,15.0,-100.00,North,351,8.0,17.0,64,0.00,,,0.00,0.000000,,2013-03-14 08:42:00,
2013-03-14 04:52:00,25.0,15.0,-100.00,North,351,8.0,17.0,64,0.00,,,0.00,0.000000,,2013-03-14 08:52:00,
2013-03-14 05:01:00,25.0,15.0,-100.00,North,351,8.0,17.0,64,0.00,,,0.00,0.000000,,2013-03-14 09:01:00,
2013-03-14 05:32:00,25.0,15.0,-100.00,NNW,340,6.0,14.0,65,0.00,,,0.00,0.000000,,2013-03-14 09:32:00,
2013-03-14 05:42:00,25.0,15.0,-100.00,NNW,340,6.0,14.0,65,0.00,,,0.00,0.000000,,2013-03-14 09:42:00,
2013-03-14 05:52:00,25.0,15.0,-100.00,NNW,340,6.0,14.0,65,0.00,,,0.00,0.000000,,2013-03-14 09:52:00,
2013-03-14 06:02:00,25.0,15.0,-100.00,NNW,340,6.0,14.0,65,0.00,,,0.00,0.000000,,2013-03-14 10:02:00,
2013-03-14 06:32:00,26.0,16.0,-100.00,NNW,343,7.0,13.0,66,0.00,,,0.00,0.000000,,2013-03-14 10:32:00,
2013-03-14 06:42:00,26.0,16.0,-100.00,NNW,343,7.0,13.0,66,0.00,,,0.00,0.000000,,2013-03-14 10:42:00,
2013-03-14 06:52:00,26.0,16.0,-100.00,NNW,343,7.0,13.0,66,0.00,,,0.00,0.000000,,2013-03-14 10:52:00,
2013-03-14 07:02:00,26.0,16.0,-100.00,NNW,343,7.0,13.0,66,0.00,,,0.00,0.000000,,2013-03-14 11:02:00,
2013-03-14 07:33:00,26.0,16.0,-100.00,NNW,346,5.0,14.0,65,0.00,,,0.00,0.000000,,2013-03-14 11:33:00,
2013-03-14 07:42:00,26.0,16.0,-100.00,NNW,346,5.0,14.0,65,0.00,,,0.00,0.000000,,2013-03-14 11:42:00,
2013-03-14 07:53:00,26.0,16.0,-100.00,NNW,346,5.0,14.0,65,0.00,,,0.00,0.000000,,2013-03-14 11:53:00,
2013-03-14 08:02:00,26.0,16.0,-100.00,NNW,346,5.0,14.0,65,0.00,,,0.00,0.000000,,2013-03-14 12:02:00,
2013-03-14 08:33:00,25.0,16.0,-100.00,NNW,342,6.0,10.0,69,0.00,,,0.00,0.000000,,2013-03-14 12:33:00,
2013-03-14 08:43:00,25.0,16.0,-100.00,NNW,342,6.0,10.0,69,0.00,,,0.00,0.000000,,2013-03-14 12:43:00,
2013-03-14 08:52:00,25.0,16.0,-100.00,NNW,342,6.0,10.0,69,0.00,,,0.00,0.000000,,2013-03-14 12:52:00,
2013-03-14 09:02:00,25.0,16.0,-100.00,NNW,342,6.0,10.0,69,0.00,,,0.00,0.000000,,2013-03-14 13:02:00,
2013-03-14 09:32:00,27.0,20.0,-100.00,NNW,329,2.0,12.0,75,0.00,,,0.00,44.000000,,2013-03-14 13:32:00,
2013-03-14 09:43:00,27.0,20.0,-100.00,NNW,329,2.0,12.0,75,0.00,,,0.00,44.000000,,2013-03-14 13:43:00,
2013-03-14 09:52:00,27.0,20.0,-100.00,NNW,329,2.0,12.0,75,0.00,,,0.00,44.000000,,2013-03-14 13:52:00,
2013-03-14 10:02:00,27.0,20.0,-100.00,NNW,329,2.0,12.0,75,0.00,,,0.00,44.000000,,2013-03-14 14:02:00,
2013-03-14 10:32:00,31.0,22.0,-100.00,NW,322,4.0,10.0,68,0.00,,,0.00,265.000000,,2013-03-14 14:32:00,
2013-03-14 10:42:00,31.0,22.0,-100.00,NW,322,4.0,10.0,68,0.00,,,0.00,265.000000,,2013-03-14 14:42:00,
2013-03-14 10:53:00,31.0,22.0,-100.00,NW,322,4.0,10.0,68,0.00,,,0.00,265.000000,,2013-03-14 14:53:00,
2013-03-14 11:02:00,31.0,22.0,-100.00,NW,322,4.0,10.0,68,0.00,,,0.00,265.000000,,2013-03-14 15:02:00,
2013-03-14 11:33:00,33.0,20.0,-100.00,NW,322,3.0,10.0,59,0.00,,,0.00,654.000000,,2013-03-14 15:33:00,
2013-03-14 11:43:00,33.0,20.0,-100.00,NW,322,3.0,10.0,59,0.00,,,0.00,654.000000,,2013-03-14 15:43:00,
2013-03-14 11:52:00,33.0,20.0,-100.00,NW,322,3.0,10.0,59,0.00,,,0.00,654.000000,,2013-03-14 15:52:00,
2013-03-14 12:03:00,33.0,20.0,-100.00,NW,322,3.0,10.0,59,0.00,,,0.00,654.000000,,2013-03-14 16:03:00,
2013-03-14 12:33:00,37.0,22.0,-100.00,NW,309,4.0,10.0,55,0.00,,,0.00,902.000000,,2013-03-14 16:33:00,
2013-03-14 12:42:00,37.0,22.0,-100.00,NW,309,4.0,10.0,55,0.00,,,0.00,902.000000,,2013-03-14 16:42:00,
2013-03-14 12:52:00,37.0,22.0,-100.00,NW,309,4.0,10.0,55,0.00,,,0.00,902.000000,,2013-03-14 16:52:00,
2013-03-14 13:02:00,37.0,22.0,-100.00,NW,309,4.0,10.0,55,0.00,,,0.00,902.000000,,2013-03-14 17:02:00,
2013-03-14 13:33:00,39.0,23.0,-100.00,NW,308,6.0,11.0,53,0.00,,,0.00,1061.000000,,2013-03-14 17:33:00,
2013-03-14 13:42:00,39.0,23.0,-100.00,NW,308,6.0,11.0,53,0.00,,,0.00,1061.000000,,2013-03-14 17:42:00,
2013-03-14 13:52:00,39.0,23.0,-100.00,NW,308,6.0,11.0,53,0.00,,,0.00,1061.000000,,2013-03-14 17:52:00,
2013-03-14 14:03:00,39.0,23.0,-100.00,NW,308,6.0,11.0,53,0.00,,,0.00,1061.000000,,2013-03-14 18:03:00,
2013-03-14 14:33:00,38.0,23.0,-100.00,WSW,257,6.0,12.0,54,0.00,,,0.00,1139.000000,,2013-03-14 18:33:00,
2013-03-14 14:43:00,38.0,23.0,-100.00,WSW,257,6.0,12.0,54,0.00,,,0.00,1139.000000,,2013-03-14 18:43:00,
2013-03-14 14:52:00,38.0,23.0,-100.00,WSW,257,6.0,12.0,54,0.00,,,0.00,1139.000000,,2013-03-14 18:52:00,
2013-03-14 15:03:00,38.0,23.0,-100.00,WSW,257,6.0,12.0,54,0.00,,,0.00,1139.000000,,2013-03-14 19:03:00,
2013-03-14 16:32:00,35.0,18.0,-100.00,WSW,255,7.0,16.0,49,-99.99,,,0.00,1006.000000,,2013-03-14 20:32:00,
2013-03-14 16:42:00,35.0,18.0,-100.00,WSW,255,7.0,16.0,49,-99.99,,,0.00,1006.000000,,2013-03-14 20:42:00,
2013-03-14 16:52:00,35.0,18.0,-100.00,WSW,255,7.0,16.0,49,-99.99,,,0.00,1006.000000,,2013-03-14 20:52:00,
2013-03-14 17:02:00,35.0,18.0,-100.00,WSW,255,7.0,16.0,49,-99.99,,,0.00,1006.000000,,2013-03-14 21:02:00,
2013-03-14 17:33:00,38.0,21.0,-100.00,WSW,257,8.0,15.0,50,0.00,,,0.00,776.000000,,2013-03-14 21:33:00,
2013-03-14 17:43:00,38.0,21.0,-100.00,WSW,257,8.0,15.0,50,0.00,,,0.00,776.000000,,2013-03-14 21:43:00,
2013-03-14 17:53:00,38.0,21.0,-100.00,WSW,257,8.0,15.0,50,0.00,,,0.00,776.000000,,2013-03-14 21:53:00,
2013-03-14 18:03:00,38.0,21.0,-100.00,WSW,257,8.0,15.0,50,0.00,,,0.00,776.000000,,2013-03-14 22:03:00,
2013-03-14 18:33:00,36.0,19.0,-100.00,WSW,249,6.0,16.0,50,0.00,,,0.00,559.000000,,2013-03-14 22:33:00,
2013-03-14 18:42:00,36.0,19.0,-100.00,WSW,249,6.0,16.0,50,0.00,,,0.00,559.000000,,2013-03-14 22:42:00,
2013-03-14 18:52:00,36.0,19.0,-100.00,WSW,249,6.0,16.0,50,0.00,,,0.00,559.000000,,2013-03-14 22:52:00,
2013-03-14 19:02:00,36.0,19.0,-100.00,WSW,249,6.0,16.0,50,0.00,,,0.00,559.000000,,2013-03-14 23:02:00,
2013-03-14 19:33:00,32.0,18.0,-100.00,WSW,240,7.0,17.0,55,0.00,,,0.00,246.000000,,2013-03-14 23:33:00,
2013-03-14 19:43:00,32.0,18.0,-100.00,WSW,240,7.0,17.0,55,0.00,,,0.00,246.000000,,2013-03-14 23:43:00,
2013-03-14 20:02:00,32.0,18.0,-100.00,WSW,240,7.0,17.0,55,0.00,,,0.00,246.000000,,2013-03-15 00:02:00,
2013-03-14 20:33:00,29.0,15.0,-100.00,SE,127,5.0,17.0,56,0.00,,,0.00,29.000000,,2013-03-15 00:33:00,
2013-03-14 20:43:00,29.0,15.0,-100.00,SE,127,5.0,17.0,56,0.00,,,0.00,29.000000,,2013-03-15 00:43:00,
2013-03-14 20:52:00,29.0,15.0,-100.00,SE,127,5.0,17.0,56,0.00,,,0.00,29.000000,,2013-03-15 00:52:00,
2013-03-14 21:02:00,29.0,15.0,-100.00,SE,127,5.0,17.0,56,0.00,,,0.00,29.000000,,2013-03-15 01:02:00,
2013-03-14 21:33:00,28.0,18.0,-100.00,SSW,203,6.0,13.0,65,0.00,,,0.00,0.000000,,2013-03-15 01:33:00,
2013-03-14 21:43:00,28.0,18.0,-100.00,SSW,203,6.0,13.0,65,0.00,,,0.00,0.000000,,2013-03-15 01:43:00,
2013-03-14 21:52:00,28.0,18.0,-100.00,SSW,203,6.0,13.0,65,0.00,,,0.00,0.000000,,2013-03-15 01:52:00,
2013-03-14 22:02:00,28.0,18.0,-100.00,SSW,203,6.0,13.0,65,0.00,,,0.00,0.000000,,2013-03-15 02:02:00,
2013-03-14 22:32:00,29.0,20.0,-100.00,SSW,211,6.0,19.0,68,0.00,,,0.00,0.000000,,2013-03-15 02:32:00,
2013-03-14 22:42:00,29.0,20.0,-100.00,SSW,211,6.0,19.0,68,0.00,,,0.00,0.000000,,2013-03-15 02:42:00,
2013-03-14 22:52:00,29.0,20.0,-100.00,SSW,211,6.0,19.0,68,0.00,,,0.00,0.000000,,2013-03-15 02:52:00,
2013-03-14 23:02:00,29.0,20.0,-100.00,SSW,211,6.0,19.0,68,0.00,,,0.00,0.000000,,2013-03-15 03:02:00,
2013-03-14 23:33:00,32.0,24.0,-100.00,SW,216,6.0,22.0,71,0.00,,,0.00,0.000000,,2013-03-15 03:33:00,
2013-03-14 23:43:00,32.0,24.0,-100.00,SW,216,6.0,22.0,71,0.00,,,0.00,0.000000,,2013-03-15 03:43:00,
2013-03-14 23:53:00,32.0,24.0,-100.00,SW,216,6.0,22.0,71,0.00,,,0.00,0.000000,,2013-03-15 03:53:00,